Time;durP1;ratioP1;P1;durP2;ratioP2;P2;SDS_P1;SDS_P2;PMS_P1;PMS_P2;Temp;Humidity;BMP_temperature;BMP_pressure;BME280_temperature;BME280_humidity;BME280_pressure;Samples;Min_cycle;Max_cycle;Signal;HPM_P1;HPM_P2
2023/05/06 00:00:02;;;;;;;5.87;3.87;;;14.10;99.90;;;;;;5036488;28;20178;-82
2023/05/06 00:02:29;;;;;;;5.57;4.40;;;14.10;99.90;;;;;;5035435;28;20182;-82
2023/05/06 00:04:54;;;;;;;4.93;4.53;;;14.10;99.90;;;;;;5036059;28;20677;-83
2023/05/06 00:07:21;;;;;;;5.23;4.73;;;14.20;99.90;;;;;;5036340;28;20174;-83
2023/05/06 00:09:47;;;;;;;5.30;4.80;;;14.20;99.90;;;;;;5036019;28;20262;-83
2023/05/06 00:12:13;;;;;;;9.80;5.30;;;14.20;99.90;;;;;;5035695;28;20183;-83
2023/05/06 00:14:39;;;;;;;5.67;5.07;;;14.30;99.90;;;;;;5036385;28;20185;-83
2023/05/06 00:17:04;;;;;;;6.07;5.20;;;14.30;99.90;;;;;;5036262;28;20703;-83
2023/05/06 00:19:30;;;;;;;6.00;5.10;;;14.30;99.90;;;;;;5035188;28;20202;-83
2023/05/06 00:21:56;;;;;;;5.20;4.60;;;14.10;99.90;;;;;;5035985;28;20572;-83
2023/05/06 00:24:22;;;;;;;5.50;5.00;;;14.10;99.90;;;;;;5034870;28;20205;-83
2023/05/06 00:26:47;;;;;;;5.60;5.10;;;14.20;99.90;;;;;;5034505;28;20185;-84
2023/05/06 00:29:13;;;;;;;5.57;4.97;;;14.10;99.90;;;;;;5034041;28;20218;-83
2023/05/06 00:31:39;;;;;;;5.70;4.80;;;14.00;99.90;;;;;;5035721;28;20201;-83
2023/05/06 00:34:05;;;;;;;5.50;5.00;;;14.00;99.90;;;;;;5034619;28;20228;-83
2023/05/06 00:36:30;;;;;;;7.30;5.07;;;14.10;99.90;;;;;;5034287;28;20174;-83
2023/05/06 00:38:56;;;;;;;5.33;4.63;;;14.10;99.90;;;;;;5034474;28;20205;-83
2023/05/06 00:41:21;;;;;;;5.70;5.10;;;14.10;99.90;;;;;;5034432;28;20174;-83
2023/05/06 00:43:47;;;;;;;5.40;4.90;;;14.00;99.90;;;;;;5035419;28;20209;-83
2023/05/06 00:46:15;;;;;;;6.80;5.93;;;13.90;99.90;;;;;;5035456;28;20182;-84
2023/05/06 00:48:42;;;;;;;5.53;5.03;;;13.90;99.90;;;;;;5033934;28;20289;-83
2023/05/06 00:51:07;;;;;;;6.10;5.37;;;13.80;99.90;;;;;;5033813;28;20171;-83
2023/05/06 00:53:33;;;;;;;6.83;5.17;;;13.90;99.90;;;;;;5033876;28;20201;-83
2023/05/06 00:55:59;;;;;;;5.30;4.80;;;13.90;99.90;;;;;;5035311;28;20231;-84
2023/05/06 00:58:24;;;;;;;5.67;5.17;;;13.90;99.90;;;;;;5035033;28;20202;-83
2023/05/06 01:00:51;;;;;;;7.27;5.50;;;14.00;99.90;;;;;;5034802;28;20558;-82
2023/05/06 01:03:17;;;;;;;5.53;5.03;;;14.00;99.90;;;;;;5035063;28;20198;-82
2023/05/06 01:06:20;;;;;;;8.33;5.40;;;14.10;99.90;;;;;;5035151;28;20522;-82
2023/05/06 01:09:16;;;;;;;5.80;5.20;;;14.10;99.90;;;;;;5031823;28;20213;-83
2023/05/06 01:12:11;;;;;;;6.30;5.70;;;14.10;99.90;;;;;;5034765;28;20296;-84
2023/05/06 01:14:36;;;;;;;6.47;5.87;;;14.20;99.90;;;;;;5033572;28;20181;-82
2023/05/06 01:17:05;;;;;;;7.73;5.43;;;14.20;99.90;;;;;;5033171;28;20182;-83
2023/05/06 01:19:40;;;;;;;5.67;5.07;;;14.20;99.90;;;;;;5033375;28;20202;-83
2023/05/06 01:22:06;;;;;;;7.07;6.37;;;14.20;99.90;;;;;;5033666;28;20174;-83
2023/05/06 01:24:43;;;;;;;7.17;6.47;;;14.10;99.90;;;;;;5033367;28;20328;-83
2023/05/06 01:27:09;;;;;;;7.13;6.43;;;14.10;99.90;;;;;;5033445;28;20166;-83
2023/05/06 01:29:37;;;;;;;7.33;6.63;;;14.10;99.90;;;;;;5032887;28;20226;-81
2023/05/06 01:32:30;;;;;;;8.57;7.33;;;14.10;99.90;;;;;;5034693;28;20202;-83
2023/05/06 01:35:15;;;;;;;8.50;7.70;;;14.10;99.90;;;;;;5033513;28;20196;-83
2023/05/06 01:37:46;;;;;;;10.30;8.70;;;14.00;99.90;;;;;;5046039;28;20205;-82
2023/05/06 01:40:15;;;;;;;9.93;8.27;;;14.10;99.90;;;;;;5053236;28;20174;-82
2023/05/06 01:42:43;;;;;;;12.80;9.63;;;14.10;99.90;;;;;;5054143;28;20188;-83
2023/05/06 01:45:10;;;;;;;11.97;10.37;;;14.10;99.90;;;;;;5052726;28;20319;-83
2023/05/06 01:47:36;;;;;;;9.97;8.97;;;14.00;99.90;;;;;;5054121;28;20197;-83
2023/05/06 01:50:03;;;;;;;9.10;8.17;;;14.00;99.90;;;;;;5052855;28;20177;-83
2023/05/06 01:52:28;;;;;;;10.20;9.10;;;14.00;99.90;;;;;;5052684;28;20644;-83
2023/05/06 01:54:54;;;;;;;10.73;9.30;;;14.10;99.90;;;;;;5052853;28;20193;-83
2023/05/06 01:57:19;;;;;;;11.70;10.00;;;14.00;99.90;;;;;;5053876;28;20181;-83
2023/05/06 01:59:45;;;;;;;11.27;10.10;;;14.10;99.90;;;;;;5050409;28;20268;-84
2023/05/06 02:02:11;;;;;;;10.77;9.23;;;14.10;99.90;;;;;;5050340;28;20208;-82
2023/05/06 02:04:36;;;;;;;11.97;9.77;;;14.10;99.90;;;;;;5053960;28;20205;-83
2023/05/06 02:07:02;;;;;;;11.20;10.10;;;14.20;99.90;;;;;;5054808;28;20170;-83
2023/05/06 02:09:27;;;;;;;11.70;10.47;;;14.20;99.90;;;;;;5056828;28;20235;-83
2023/05/06 02:11:53;;;;;;;13.47;10.43;;;14.10;99.90;;;;;;5056851;28;20265;-82
2023/05/06 02:14:18;;;;;;;11.30;9.77;;;14.20;99.90;;;;;;5058664;28;20184;-82
2023/05/06 02:16:44;;;;;;;14.07;11.10;;;14.20;99.90;;;;;;5059027;28;20174;-81
2023/05/06 02:19:09;;;;;;;10.90;9.80;;;14.10;99.90;;;;;;5059981;28;20246;-81
2023/05/06 02:21:35;;;;;;;10.57;9.47;;;14.10;99.90;;;;;;5058046;28;20178;-80
2023/05/06 02:24:01;;;;;;;11.43;10.23;;;14.10;99.90;;;;;;5058594;28;20207;-81
2023/05/06 02:26:26;;;;;;;11.07;9.97;;;14.10;99.90;;;;;;5059689;28;20178;-81
2023/05/06 02:28:52;;;;;;;10.63;9.53;;;14.10;99.90;;;;;;5059275;28;20201;-81
2023/05/06 02:31:17;;;;;;;11.93;10.60;;;14.00;99.90;;;;;;5060027;28;20176;-81
2023/05/06 02:33:44;;;;;;;11.50;10.30;;;13.90;99.90;;;;;;5058525;28;20204;-81
2023/05/06 02:36:10;;;;;;;13.40;10.77;;;13.80;99.90;;;;;;5059821;28;20173;-81
2023/05/06 02:38:35;;;;;;;12.97;10.57;;;13.80;99.90;;;;;;5060238;28;20205;-81
2023/05/06 02:41:01;;;;;;;11.73;10.50;;;13.80;99.90;;;;;;5058868;28;20185;-82
2023/05/06 02:43:26;;;;;;;11.97;10.47;;;13.80;99.90;;;;;;5058086;28;20200;-83
2023/05/06 02:45:52;;;;;;;11.83;10.17;;;13.90;99.90;;;;;;5058004;28;20287;-83
2023/05/06 02:48:18;;;;;;;12.60;10.73;;;13.80;99.90;;;;;;5057519;28;20194;-83
2023/05/06 02:50:43;;;;;;;12.97;10.70;;;13.80;99.90;;;;;;5056268;28;20557;-85
2023/05/06 02:53:11;;;;;;;11.83;10.10;;;13.90;99.90;;;;;;5057530;28;20184;-83
2023/05/06 02:55:37;;;;;;;11.33;9.97;;;13.90;99.90;;;;;;5056157;28;20240;-83
2023/05/06 02:58:03;;;;;;;11.23;10.00;;;13.90;99.90;;;;;;5056247;28;20197;-83
2023/05/06 03:00:28;;;;;;;10.63;9.53;;;13.90;99.90;;;;;;5056010;28;20212;-83
2023/05/06 03:02:54;;;;;;;11.17;9.93;;;14.00;99.90;;;;;;5057158;28;20200;-82
2023/05/06 03:05:20;;;;;;;12.07;10.30;;;13.90;99.90;;;;;;5057672;28;20574;-83
2023/05/06 03:07:45;;;;;;;11.70;10.27;;;13.90;99.90;;;;;;5055519;28;20617;-83
2023/05/06 03:10:11;;;;;;;12.30;10.03;;;13.90;99.90;;;;;;5055652;28;20548;-83
2023/05/06 03:12:37;;;;;;;11.03;9.70;;;13.90;99.90;;;;;;5055737;28;20532;-83
2023/05/06 03:15:02;;;;;;;10.30;9.30;;;13.90;99.90;;;;;;5057512;28;20178;-83
2023/05/06 03:17:28;;;;;;;9.93;8.93;;;14.00;99.90;;;;;;5055648;28;20201;-83
2023/05/06 03:19:53;;;;;;;10.93;9.53;;;14.00;99.90;;;;;;5055804;28;20177;-83
2023/05/06 03:22:19;;;;;;;10.57;9.17;;;13.90;99.90;;;;;;5056005;28;20658;-83
2023/05/06 03:24:45;;;;;;;8.17;7.23;;;14.00;99.90;;;;;;5056925;28;20665;-83
2023/05/06 03:27:13;;;;;;;11.47;10.27;;;13.90;99.90;;;;;;5057184;28;20617;-82
2023/05/06 03:29:39;;;;;;;11.60;9.67;;;13.70;99.90;;;;;;5056834;28;20173;-83
2023/05/06 03:32:05;;;;;;;10.87;9.77;;;13.70;99.90;;;;;;5056057;28;20188;-83
2023/05/06 03:34:30;;;;;;;10.10;9.10;;;13.70;99.90;;;;;;5056589;28;20710;-83
2023/05/06 03:36:57;;;;;;;10.30;9.20;;;13.70;99.90;;;;;;5056132;28;20178;-83
2023/05/06 03:39:22;;;;;;;9.67;8.67;;;13.60;99.90;;;;;;5055375;28;20198;-83
2023/05/06 03:41:48;;;;;;;10.67;9.30;;;13.50;99.90;;;;;;5054789;28;20200;-82
2023/05/06 03:44:14;;;;;;;10.73;9.63;;;13.60;99.90;;;;;;5055248;28;20202;-83
2023/05/06 03:46:40;;;;;;;11.00;9.67;;;13.50;99.90;;;;;;5055185;28;20261;-83
2023/05/06 03:49:06;;;;;;;10.73;9.57;;;13.60;99.90;;;;;;5055730;28;20186;-84
2023/05/06 03:51:32;;;;;;;10.60;9.50;;;13.60;99.90;;;;;;5055293;28;20185;-84
2023/05/06 03:53:58;;;;;;;11.07;9.90;;;13.70;99.90;;;;;;5054414;28;20181;-83
2023/05/06 03:56:24;;;;;;;11.50;10.30;;;13.70;99.90;;;;;;5056153;28;20177;-83
2023/05/06 03:58:49;;;;;;;11.90;10.53;;;13.60;99.90;;;;;;5054942;28;20204;-83
2023/05/06 04:01:16;;;;;;;12.97;9.97;;;13.60;99.90;;;;;;5054365;28;20227;-83
2023/05/06 04:03:43;;;;;;;10.97;9.87;;;13.70;99.90;;;;;;5054385;28;20201;-81
2023/05/06 04:06:08;;;;;;;11.10;10.00;;;13.70;99.90;;;;;;5054567;28;20260;-83
2023/05/06 04:08:34;;;;;;;10.70;9.60;;;13.70;99.90;;;;;;5054428;28;20233;-83
2023/05/06 04:11:06;;;;;;;11.50;9.57;;;13.70;99.90;;;;;;5053997;28;20173;-83
2023/05/06 04:13:32;;;;;;;12.00;9.53;;;13.70;99.90;;;;;;5054388;28;20177;-83
2023/05/06 04:15:58;;;;;;;11.23;8.33;;;13.70;99.90;;;;;;5054346;28;20189;-83
2023/05/06 04:18:24;;;;;;;11.13;8.67;;;13.70;99.90;;;;;;5054644;28;20574;-82
2023/05/06 04:20:50;;;;;;;8.70;7.73;;;13.70;99.90;;;;;;5054214;28;20180;-83
2023/05/06 04:23:15;;;;;;;9.90;8.90;;;13.70;99.90;;;;;;5055579;28;20202;-83
2023/05/06 04:25:43;;;;;;;10.23;7.53;;;13.60;99.90;;;;;;5055373;28;20170;-84
2023/05/06 04:28:13;;;;;;;8.73;7.73;;;13.60;99.90;;;;;;5055354;28;20197;-84
2023/05/06 04:30:39;;;;;;;8.80;7.70;;;13.60;99.90;;;;;;5054816;28;20177;-84
2023/05/06 04:33:06;;;;;;;9.23;8.20;;;13.50;99.90;;;;;;5054637;28;20177;-84
2023/05/06 04:35:32;;;;;;;10.47;7.97;;;13.50;99.90;;;;;;5056372;28;20198;-84
2023/05/06 04:37:58;;;;;;;9.17;8.00;;;13.50;99.90;;;;;;5056260;28;20265;-86
2023/05/06 04:40:25;;;;;;;9.13;8.03;;;13.50;99.90;;;;;;5056279;28;20197;-83
2023/05/06 04:42:51;;;;;;;9.77;8.47;;;13.50;99.90;;;;;;5056973;28;20177;-84
2023/05/06 04:45:17;;;;;;;8.60;6.97;;;13.50;99.90;;;;;;5056004;28;20197;-84
2023/05/06 04:47:43;;;;;;;11.33;8.97;;;13.50;99.90;;;;;;5056633;28;20199;-83
2023/05/06 04:50:09;;;;;;;11.07;8.67;;;13.60;99.90;;;;;;5054500;28;20165;-85
2023/05/06 04:52:35;;;;;;;13.37;9.17;;;13.60;99.90;;;;;;5057148;28;20169;-85
2023/05/06 04:55:01;;;;;;;12.73;9.40;;;13.50;99.90;;;;;;5056777;28;20174;-86
2023/05/06 04:57:27;;;;;;;12.03;9.40;;;13.60;99.90;;;;;;5056325;28;20177;-85
2023/05/06 04:59:52;;;;;;;10.67;8.87;;;13.60;99.90;;;;;;5056407;28;20173;-85
2023/05/06 05:02:18;;;;;;;11.20;9.20;;;13.50;99.90;;;;;;5055027;28;20316;-86
2023/05/06 05:04:43;;;;;;;10.90;9.23;;;13.50;99.90;;;;;;5055528;28;20212;-86
2023/05/06 05:07:09;;;;;;;11.73;9.10;;;13.40;99.90;;;;;;5054767;28;20180;-87
2023/05/06 05:09:35;;;;;;;11.07;9.00;;;13.40;99.90;;;;;;5057537;28;20211;-86
2023/05/06 05:12:01;;;;;;;10.90;9.43;;;13.40;99.90;;;;;;5058765;28;20170;-85
2023/05/06 05:14:27;;;;;;;11.73;9.33;;;13.40;99.90;;;;;;5057300;28;20268;-86
2023/05/06 05:16:53;;;;;;;9.83;8.83;;;13.30;99.90;;;;;;5059900;28;20201;-86
2023/05/06 05:19:18;;;;;;;10.17;9.00;;;13.30;99.90;;;;;;5060691;28;20196;-84
2023/05/06 05:21:44;;;;;;;9.80;8.43;;;13.30;99.90;;;;;;5059689;28;20226;-85
2023/05/06 05:24:09;;;;;;;13.37;8.90;;;13.30;99.90;;;;;;5057793;28;20197;-85
2023/05/06 05:26:35;;;;;;;11.30;8.77;;;13.30;99.90;;;;;;5060413;28;20180;-85
2023/05/06 05:29:00;;;;;;;9.60;8.60;;;13.30;99.90;;;;;;5061164;28;20185;-85
2023/05/06 05:31:26;;;;;;;10.33;9.20;;;13.30;99.90;;;;;;5060908;28;20691;-86
2023/05/06 05:33:51;;;;;;;8.87;7.97;;;13.40;99.90;;;;;;5060118;28;20223;-86
2023/05/06 05:36:17;;;;;;;9.67;8.50;;;13.40;99.90;;;;;;5059673;28;20252;-85
2023/05/06 05:38:43;;;;;;;12.10;9.00;;;13.40;99.90;;;;;;5059148;28;20313;-86
2023/05/06 05:41:09;;;;;;;11.30;8.50;;;13.50;99.90;;;;;;5058726;28;20209;-86
2023/05/06 05:43:34;;;;;;;9.93;8.87;;;13.50;99.90;;;;;;5059907;28;20238;-83
2023/05/06 05:46:00;;;;;;;9.17;7.77;;;13.60;99.90;;;;;;5058453;28;20174;-83
2023/05/06 05:48:25;;;;;;;9.70;8.33;;;13.90;99.90;;;;;;5058611;28;20668;-83
2023/05/06 05:50:51;;;;;;;8.83;7.93;;;14.20;99.90;;;;;;5060441;28;20165;-83
2023/05/06 05:53:16;;;;;;;9.03;7.80;;;14.30;99.90;;;;;;5061625;28;20180;-84
2023/05/06 05:55:42;;;;;;;8.83;7.83;;;14.30;99.90;;;;;;5056884;28;20174;-84
2023/05/06 05:58:10;;;;;;;9.50;8.10;;;14.10;99.90;;;;;;5053353;28;20229;-88
2023/05/06 06:00:35;;;;;;;9.53;8.53;;;14.10;99.90;;;;;;5052679;28;20177;-86
2023/05/06 06:03:01;;;;;;;8.77;7.87;;;13.90;99.90;;;;;;5053420;28;20178;-88
2023/05/06 06:05:26;;;;;;;8.83;7.93;;;13.80;99.90;;;;;;5054728;28;20177;-85
2023/05/06 06:07:52;;;;;;;9.23;8.00;;;13.90;99.90;;;;;;5054676;28;20220;-87
2023/05/06 06:10:17;;;;;;;9.03;8.00;;;13.90;99.90;;;;;;5053023;28;20176;-87
2023/05/06 06:12:43;;;;;;;8.67;7.60;;;13.90;99.90;;;;;;5053068;28;20177;-83
2023/05/06 06:15:09;;;;;;;10.23;8.27;;;13.90;99.90;;;;;;5053274;28;20178;-83
2023/05/06 06:17:35;;;;;;;8.97;7.67;;;13.70;99.90;;;;;;5054848;28;20789;-83
2023/05/06 06:20:00;;;;;;;8.60;7.30;;;13.80;99.90;;;;;;5052810;28;20264;-84
2023/05/06 06:22:26;;;;;;;8.50;7.43;;;13.80;99.90;;;;;;5053402;28;20223;-84
2023/05/06 06:24:55;;;;;;;8.37;7.47;;;13.90;99.90;;;;;;5051768;28;20251;-84
2023/05/06 06:27:20;;;;;;;7.67;6.87;;;14.00;99.90;;;;;;5049721;28;20607;-86
2023/05/06 06:29:49;;;;;;;7.60;6.80;;;14.10;99.90;;;;;;5054463;28;20196;-84
2023/05/06 06:32:15;;;;;;;7.20;6.37;;;14.20;99.90;;;;;;5053485;28;20219;-85
2023/05/06 06:34:41;;;;;;;6.80;6.10;;;14.20;99.90;;;;;;5053816;28;20173;-83
2023/05/06 06:37:09;;;;;;;7.63;6.60;;;14.20;99.90;;;;;;5053550;28;20676;-82
2023/05/06 06:39:35;;;;;;;6.03;5.43;;;14.30;99.90;;;;;;5053990;28;20204;-90
2023/05/06 06:42:05;;;;;;;7.13;5.57;;;14.30;99.90;;;;;;5055053;28;20174;-81
2023/05/06 06:44:32;;;;;;;5.40;4.90;;;14.40;99.90;;;;;;5054144;28;20197;-82
2023/05/06 06:46:58;;;;;;;5.90;5.10;;;14.60;99.90;;;;;;5056237;28;20248;-81
2023/05/06 06:49:24;;;;;;;5.50;4.97;;;14.60;99.90;;;;;;5056094;28;20221;-81
2023/05/06 06:51:50;;;;;;;4.90;4.23;;;14.70;99.90;;;;;;5053280;28;20170;-81
2023/05/06 06:54:16;;;;;;;4.93;4.40;;;14.80;1.00;;;;;;5058369;28;20228;-82
2023/05/06 06:56:42;;;;;;;4.43;4.03;;;14.80;1.00;;;;;;5060479;28;20177;-82
2023/05/06 06:59:07;;;;;;;4.80;4.40;;;14.70;1.00;;;;;;5058835;28;20284;-81
2023/05/06 07:01:33;;;;;;;5.40;4.30;;;14.70;1.00;;;;;;5058365;28;20243;-82
2023/05/06 07:03:58;;;;;;;4.13;3.77;;;14.80;13.60;;;;;;5064354;28;20276;-84
2023/05/06 07:06:24;;;;;;;5.13;4.00;;;14.90;1.00;;;;;;5067515;28;20169;-85
2023/05/06 07:08:49;;;;;;;4.27;3.90;;;14.90;1.00;;;;;;5069436;28;20213;-82
2023/05/06 07:11:15;;;;;;;4.43;3.90;;;15.10;1.00;;;;;;5059089;28;20637;-85
2023/05/06 07:13:40;;;;;;;4.83;4.33;;;15.20;1.00;;;;;;5049012;28;20193;-81
2023/05/06 07:16:06;;;;;;;5.80;4.60;;;15.20;1.00;;;;;;5049856;28;20666;-81
2023/05/06 07:18:32;;;;;;;4.63;4.13;;;15.20;1.00;;;;;;5051076;28;20565;-81
2023/05/06 07:20:57;;;;;;;4.30;3.90;;;15.20;1.00;;;;;;5050731;28;20182;-82
2023/05/06 07:23:23;;;;;;;5.40;3.97;;;15.20;1.00;;;;;;5049443;28;20210;-82
2023/05/06 07:25:48;;;;;;;4.30;3.90;;;15.20;1.00;;;;;;5049144;28;20174;-82
2023/05/06 07:28:14;;;;;;;3.83;3.53;;;15.20;1.00;;;;;;5049293;28;20205;-81
2023/05/06 07:30:40;;;;;;;4.00;3.43;;;15.10;1.00;;;;;;5048895;28;20257;-81
2023/05/06 07:33:06;;;;;;;3.93;3.53;;;15.20;1.00;;;;;;5047641;28;20178;-81
2023/05/06 07:35:32;;;;;;;4.80;3.83;;;15.40;99.90;;;;;;5049229;28;20174;-81
2023/05/06 07:37:57;;;;;;;3.80;3.40;;;15.50;1.00;;;;;;5047163;28;20194;-81
2023/05/06 07:40:23;;;;;;;4.10;3.20;;;15.70;1.00;;;;;;5048584;28;20711;-81
2023/05/06 07:42:49;;;;;;;3.87;3.47;;;15.70;99.90;;;;;;5048480;28;20198;-80
2023/05/06 07:45:14;;;;;;;3.83;3.20;;;15.70;99.90;;;;;;5047669;28;20281;-81
2023/05/06 07:47:40;;;;;;;3.33;2.97;;;15.50;99.90;;;;;;5047602;28;20194;-81
2023/05/06 07:50:07;;;;;;;3.60;2.70;;;15.60;1.00;;;;;;5046992;28;20209;-82
2023/05/06 07:52:33;;;;;;;2.90;2.50;;;15.70;99.90;;;;;;5047197;28;20201;-81
2023/05/06 07:54:58;;;;;;;2.97;2.40;;;15.80;1.00;;;;;;5046487;28;20182;-81
2023/05/06 07:57:24;;;;;;;2.73;2.53;;;15.80;1.00;;;;;;5046241;28;20178;-83
2023/05/06 07:59:51;;;;;;;3.50;2.70;;;15.80;4.90;;;;;;5048143;28;20205;-81
2023/05/06 08:02:16;;;;;;;2.90;2.70;;;15.90;1.00;;;;;;5046812;28;20186;-82
2023/05/06 08:04:43;;;;;;;4.13;2.90;;;16.10;1.00;;;;;;5045491;28;20198;-82
2023/05/06 08:07:09;;;;;;;3.30;3.00;;;16.30;1.00;;;;;;5048014;28;20179;-82
2023/05/06 08:09:35;;;;;;;2.97;2.70;;;16.30;48.80;;;;;;5063523;28;20210;-82
2023/05/06 08:12:00;;;;;;;3.60;3.30;;;16.30;1.00;;;;;;5066481;28;20180;-80
2023/05/06 08:14:26;;;;;;;2.90;2.70;;;16.40;36.10;;;;;;5066549;28;20185;-81
2023/05/06 08:16:52;;;;;;;3.07;2.77;;;16.50;99.90;;;;;;5067132;28;20204;-81
2023/05/06 08:19:18;;;;;;;2.83;2.43;;;16.50;1.00;;;;;;5065810;28;20197;-81
2023/05/06 08:21:44;;;;;;;2.50;2.30;;;16.50;99.90;;;;;;5065207;28;20249;-81
2023/05/06 08:24:12;;;;;;;2.53;2.20;;;16.70;99.90;;;;;;5066557;28;20215;-81
2023/05/06 08:26:38;;;;;;;2.60;2.27;;;16.80;99.90;;;;;;5066881;28;20189;-80
2023/05/06 08:29:03;;;;;;;2.80;2.50;;;16.80;99.90;;;;;;5064282;28;20194;-79
2023/05/06 08:31:29;;;;;;;2.97;2.50;;;16.90;93.80;;;;;;5066630;28;20446;-81
2023/05/06 08:33:55;;;;;;;2.60;2.37;;;17.00;1.00;;;;;;5067318;28;20177;-80
2023/05/06 08:36:21;;;;;;;1.50;1.40;;;17.30;1.00;;;;;;5067148;28;20181;-79
2023/05/06 08:38:49;;;;;;;1.50;1.40;;;17.30;99.90;;;;;;5067676;28;20220;-81
2023/05/06 08:41:18;;;;;;;2.80;1.40;;;17.40;1.00;;;;;;5064719;28;20212;-81
2023/05/06 08:43:45;;;;;;;1.47;1.37;;;17.40;1.00;;;;;;5066375;28;20224;-81
2023/05/06 08:46:12;;;;;;;0.93;0.90;;;17.70;1.00;;;;;;5065259;28;20247;-81
2023/05/06 08:48:38;;;;;;;1.10;1.00;;;17.90;99.90;;;;;;5064784;28;20276;-81
2023/05/06 08:51:04;;;;;;;1.37;1.20;;;17.80;80.00;;;;;;5064458;28;20166;-81
2023/05/06 08:53:31;;;;;;;1.23;1.10;;;17.90;35.80;;;;;;5064366;28;20169;-81
2023/05/06 08:56:02;;;;;;;1.10;1.00;;;17.80;1.00;;;;;;5064687;28;20170;-81
2023/05/06 08:58:30;;;;;;;2.47;1.30;;;18.00;1.00;;;;;;5066281;28;20189;-80
2023/05/06 09:00:57;;;;;;;1.40;1.10;;;18.30;1.00;;;;;;5064394;28;20204;-81
2023/05/06 09:03:22;;;;;;;2.10;1.10;;;18.30;99.90;;;;;;5065932;28;20233;-81
2023/05/06 09:05:48;;;;;;;1.33;1.20;;;18.60;99.90;;;;;;5063905;28;20179;-81
2023/05/06 09:08:14;;;;;;;1.40;1.23;;;18.60;99.90;;;;;;5047469;28;20213;-81
2023/05/06 09:10:44;;;;;;;1.10;1.00;;;18.70;99.90;;;;;;5046376;28;20178;-80
2023/05/06 09:13:12;;;;;;;1.33;1.20;;;18.70;99.90;;;;;;5045715;28;20257;-80
2023/05/06 09:15:46;;;;;;;2.10;1.40;;;18.60;99.90;;;;;;5044997;28;20174;-81
2023/05/06 09:18:12;;;;;;;1.80;1.50;;;18.50;1.00;;;;;;5042277;28;20668;-81
2023/05/06 09:20:43;;;;;;;2.20;1.20;;;18.50;1.00;;;;;;5043386;28;20257;-81
2023/05/06 09:23:11;;;;;;;2.07;0.93;;;18.50;99.90;;;;;;5044173;28;20177;-80
2023/05/06 09:25:37;;;;;;;1.20;1.10;;;18.30;56.60;;;;;;5044013;28;20183;-80
2023/05/06 09:28:07;;;;;;;1.30;1.20;;;18.50;1.00;;;;;;5044287;28;20194;-80
2023/05/06 09:30:37;;;;;;;1.50;1.30;;;18.80;99.90;;;;;;5042791;28;20173;-80
2023/05/06 09:33:03;;;;;;;1.40;1.30;;;18.90;99.90;;;;;;5043696;28;20228;-81
2023/05/06 09:35:35;;;;;;;1.53;1.40;;;18.90;99.90;;;;;;5043218;28;20174;-81
2023/05/06 09:38:01;;;;;;;2.10;1.40;;;19.10;99.90;;;;;;5045019;28;20197;-81
2023/05/06 09:40:28;;;;;;;1.47;1.37;;;19.20;99.90;;;;;;5042320;28;20175;-82
2023/05/06 09:42:55;;;;;;;1.77;1.50;;;19.40;99.90;;;;;;5042518;28;20174;-81
2023/05/06 09:45:21;;;;;;;3.33;1.43;;;19.60;1.00;;;;;;5043275;28;20178;-83
2023/05/06 09:47:48;;;;;;;1.57;1.30;;;19.80;1.00;;;;;;5045185;28;20194;-82
2023/05/06 09:50:15;;;;;;;3.67;1.47;;;20.10;99.90;;;;;;5042550;28;20236;-81
2023/05/06 09:52:44;;;;;;;1.53;1.30;;;20.30;99.90;;;;;;5044030;28;20186;-80
2023/05/06 09:55:10;;;;;;;1.45;1.33;;;20.60;1.00;;;;;;5043175;28;20174;-81
2023/05/06 09:57:37;;;;;;;1.55;1.40;;;20.30;1.00;;;;;;5042037;28;20181;-81
2023/05/06 10:00:05;;;;;;;1.50;1.40;;;20.40;1.00;;;;;;5042658;28;20174;-81
2023/05/06 10:02:32;;;;;;;2.60;1.60;;;19.90;1.00;;;;;;5043025;28;20178;-82
2023/05/06 10:04:59;;;;;;;4.23;1.57;;;19.80;1.00;;;;;;5042131;28;20210;-83
2023/05/06 10:07:27;;;;;;;1.75;1.52;;;19.70;74.70;;;;;;5039717;28;20234;-81
2023/05/06 10:09:55;;;;;;;1.40;1.30;;;19.90;99.90;;;;;;5044569;28;20166;-80
2023/05/06 10:12:21;;;;;;;12.47;3.60;;;20.20;1.00;;;;;;5043457;28;20166;-81
2023/05/06 10:14:46;;;;;;;1.63;1.40;;;20.30;1.00;;;;;;5038048;28;20246;-75
2023/05/06 10:17:12;;;;;;;1.43;1.33;;;20.70;1.00;;;;;;5035883;28;20274;-80
2023/05/06 10:19:45;;;;;;;1.10;1.00;;;20.90;1.00;;;;;;5042955;28;20201;-79
2023/05/06 10:22:40;;;;;;;1.85;1.30;;;21.30;99.90;;;;;;5038709;28;20653;-81
2023/05/06 10:25:29;;;;;;;3.85;1.35;;;21.30;99.90;;;;;;5034624;28;20213;-78
2023/05/06 10:27:54;;;;;;;1.20;1.10;;;21.10;99.90;;;;;;5035972;28;20262;-77
2023/05/06 10:30:22;;;;;;;1.45;1.27;;;21.20;99.90;;;;;;5039300;28;20214;-78
2023/05/06 10:32:51;;;;;;;1.98;1.40;;;21.30;1.00;;;;;;5039357;28;20190;-79
2023/05/06 10:35:37;;;;;;;1.27;1.10;;;21.70;1.00;;;;;;5040384;28;20174;-79
2023/05/06 10:38:05;;;;;;;2.28;1.10;;;21.80;99.90;;;;;;5041006;28;20220;-82
2023/05/06 10:40:31;;;;;;;4.00;1.10;;;22.20;1.00;;;;;;5039716;28;20178;-79
2023/05/06 10:43:24;;;;;;;1.42;1.33;;;22.20;99.90;;;;;;5058813;28;20182;-80
2023/05/06 10:45:59;;;;;;;1.77;1.10;;;22.10;99.90;;;;;;5061340;28;20189;-79
2023/05/06 10:48:25;;;;;;;1.23;1.05;;;22.20;99.90;;;;;;5064334;28;20197;-80
2023/05/06 10:50:51;;;;;;;1.73;1.10;;;22.20;99.90;;;;;;5062485;28;20185;-80
2023/05/06 10:53:58;;;;;;;1.38;1.27;;;21.70;99.90;;;;;;5065775;28;20188;-80
2023/05/06 10:56:29;;;;;;;4.68;1.10;;;21.60;99.90;;;;;;5069851;28;20154;-79
2023/05/06 10:58:55;;;;;;;1.60;1.20;;;21.80;99.90;;;;;;5068860;28;20198;-79
2023/05/06 11:01:25;;;;;;;1.65;1.30;;;22.00;99.90;;;;;;5066391;28;20316;-81
2023/05/06 11:03:51;;;;;;;1.48;1.38;;;22.20;99.90;;;;;;5060482;28;20201;-82
2023/05/06 11:06:34;;;;;;;2.10;1.27;;;22.10;57.80;;;;;;5061283;28;20203;-83
2023/05/06 11:09:00;;;;;;;1.98;1.17;;;22.00;15.60;;;;;;5094595;22;20255;-82
2023/05/06 11:11:45;;;;;;;1.30;1.00;;;21.80;1.00;;;;;;5075567;28;20228;-82
2023/05/06 11:14:12;;;;;;;1.23;1.05;;;22.00;14.60;;;;;;5074123;28;20230;-82
2023/05/06 11:16:50;;;;;;;1.10;1.00;;;22.30;1.00;;;;;;5053976;28;20241;-82
2023/05/06 11:19:22;;;;;;;1.02;0.93;;;22.50;1.00;;;;;;5055452;28;20197;-82
2023/05/06 11:21:48;;;;;;;0.93;0.90;;;22.50;1.00;;;;;;5061119;28;20178;-83
2023/05/06 11:24:20;;;;;;;1.20;0.98;;;22.70;1.00;;;;;;5077594;28;20232;-85
2023/05/06 11:26:46;;;;;;;2.13;0.95;;;22.90;1.00;;;;;;5074687;28;20205;-83
2023/05/06 11:29:15;;;;;;;1.35;0.90;;;22.90;1.00;;;;;;5091977;28;20188;-80
2023/05/06 11:31:42;;;;;;;1.48;1.10;;;23.10;1.00;;;;;;5092238;28;20195;-81
2023/05/06 11:34:17;;;;;;;2.40;1.10;;;23.20;1.00;;;;;;5075774;28;20178;-82
2023/05/06 11:37:01;;;;;;;1.25;1.05;;;22.70;1.00;;;;;;5076359;28;20172;-80
2023/05/06 11:39:29;;;;;;;1.25;1.10;;;22.80;1.00;;;;;;5076369;28;20189;-80
2023/05/06 11:41:57;;;;;;;3.05;1.45;;;23.00;1.00;;;;;;5074642;28;20670;-80
2023/05/06 11:44:28;;;;;;;1.65;1.30;;;23.30;1.00;;;;;;5076510;28;20185;-78
2023/05/06 11:47:05;;;;;;;1.52;1.20;;;23.60;1.00;;;;;;5074719;28;20176;-86
2023/05/06 11:49:39;;;;;;;1.13;1.02;;;23.60;1.00;;;;;;5075414;28;20874;-81
2023/05/06 11:52:10;;;;;;;1.15;1.02;;;23.70;1.00;;;;;;5083903;28;20180;-81
2023/05/06 11:54:39;;;;;;;0.85;0.82;;;23.10;1.00;;;;;;5074656;28;20263;-81
2023/05/06 11:57:04;;;;;;;1.40;1.10;;;23.20;1.00;;;;;;5074215;28;20558;-81
2023/05/06 11:59:38;;;;;;;1.08;0.80;;;23.20;1.00;;;;;;5090653;28;20189;-81
2023/05/06 12:02:09;;;;;;;0.98;0.93;;;23.10;1.00;;;;;;5088310;28;20176;-80
2023/05/06 12:04:45;;;;;;;1.20;1.02;;;23.10;1.00;;;;;;5074875;28;20223;-81
2023/05/06 12:07:12;;;;;;;1.58;1.20;;;23.30;1.00;;;;;;5075179;28;20176;-80
2023/05/06 12:09:41;;;;;;;1.42;1.10;;;23.50;1.00;;;;;;5073319;28;20243;-80
2023/05/06 12:12:08;;;;;;;1.40;1.30;;;23.40;1.00;;;;;;5074547;28;20165;-80
2023/05/06 12:14:35;;;;;;;1.35;1.10;;;23.70;1.00;;;;;;5074265;28;20223;-81
2023/05/06 12:17:02;;;;;;;1.30;1.20;;;24.20;1.00;;;;;;5075010;28;20260;-80
2023/05/06 12:19:28;;;;;;;1.58;1.33;;;24.80;1.00;;;;;;5073234;28;20204;-80
2023/05/06 12:21:54;;;;;;;2.25;1.40;;;24.80;1.00;;;;;;5073135;28;20187;-80
2023/05/06 12:24:29;;;;;;;1.63;1.27;;;24.50;1.00;;;;;;5074340;28;20201;-80
2023/05/06 12:26:55;;;;;;;1.23;1.13;;;24.70;1.00;;;;;;5074546;28;20168;-80
2023/05/06 12:29:21;;;;;;;2.47;1.33;;;24.50;1.00;;;;;;5073076;28;20212;-80
2023/05/06 12:31:47;;;;;;;1.40;1.20;;;24.50;1.00;;;;;;5074064;28;20165;-80
2023/05/06 12:34:14;;;;;;;1.83;1.20;;;24.30;1.00;;;;;;5073204;28;20592;-80
2023/05/06 12:36:41;;;;;;;1.10;1.00;;;24.40;1.00;;;;;;5074218;28;20632;-80
2023/05/06 12:39:08;;;;;;;1.77;1.35;;;24.70;1.00;;;;;;5073042;28;20197;-80
2023/05/06 12:41:44;;;;;;;1.52;1.10;;;25.20;1.00;;;;;;5073731;28;20180;-80
2023/05/06 12:44:32;;;;;;;3.10;1.30;;;25.10;1.00;;;;;;5072910;28;20204;-80
2023/05/06 12:47:08;;;;;;;2.22;1.20;;;25.50;1.00;;;;;;5072766;28;20173;-80